Time,TemperatureF,DewpointF,PressureIn,WindDirection,WindDirectionDegrees,WindSpeedMPH,WindSpeedGustMPH,Humidity,HourlyPrecipIn,Conditions,Clouds,dailyrainin,SoftwareType,DateUTC
2013-02-20 04:35:00,10.5,5.5,30.37,NW,313,12.0,14.0,80,0.00,,,0.00,Wunderground v.1.15,2013-02-20 10:35:00,
2013-02-20 04:45:00,10.4,5.5,30.37,NW,309,16.0,16.0,80,0.00,,,0.00,Wunderground v.1.15,2013-02-20 10:45:00,
2013-02-20 04:50:00,10.3,5.4,30.37,NW,313,12.0,16.0,80,0.00,,,0.00,Wunderground v.1.15,2013-02-20 10:50:00,
2013-02-20 04:55:00,10.3,5.4,30.37,NW,310,13.0,13.0,80,0.00,,,0.00,Wunderground v.1.15,2013-02-20 10:55:00,
2013-02-20 05:00:00,10.3,5.4,30.37,NW,311,13.0,13.0,80,0.00,,,0.00,Wunderground v.1.15,2013-02-20 11:00:00,
2013-02-20 05:05:00,10.1,4.9,30.37,NNW,328,13.0,15.0,79,0.00,,,0.00,Wunderground v.1.15,2013-02-20 11:05:00,
2013-02-20 05:10:00,10.1,4.9,30.37,NW,314,12.0,12.0,79,0.00,,,0.00,Wunderground v.1.15,2013-02-20 11:10:00,
2013-02-20 05:15:00,10.1,5.2,30.37,NW,315,11.0,12.0,80,0.00,,,0.00,Wunderground v.1.15,2013-02-20 11:15:00,
2013-02-20 05:20:00,10.1,5.2,30.37,NNW,332,11.0,11.0,80,0.00,,,0.00,Wunderground v.1.15,2013-02-20 11:20:00,
2013-02-20 05:25:00,10.1,5.2,30.37,NW,312,11.0,12.0,80,0.00,,,0.00,Wunderground v.1.15,2013-02-20 11:25:00,
2013-02-20 05:30:00,10.0,5.1,30.37,NW,317,11.0,11.0,80,0.00,,,0.00,Wunderground v.1.15,2013-02-20 11:30:00,
2013-02-20 05:35:00,10.0,5.1,30.37,NW,309,12.0,12.0,80,0.00,,,0.00,Wunderground v.1.15,2013-02-20 11:35:00,
2013-02-20 05:40:00,10.0,5.1,30.37,NNW,329,11.0,11.0,80,0.00,,,0.00,Wunderground v.1.15,2013-02-20 11:40:00,
2013-02-20 05:45:00,9.9,5.0,30.37,NW,318,10.0,11.0,80,0.00,,,0.00,Wunderground v.1.15,2013-02-20 11:45:00,
2013-02-20 05:50:00,10.0,5.3,30.37,NW,317,10.0,10.0,81,0.00,,,0.00,Wunderground v.1.15,2013-02-20 11:50:00,
2013-02-20 05:55:00,9.9,5.2,30.37,NNW,333,9.0,17.0,81,0.00,,,0.00,Wunderground v.1.15,2013-02-20 11:55:00,
2013-02-20 06:00:00,9.9,5.2,30.36,NW,313,9.0,10.0,81,0.00,,,0.00,Wunderground v.1.15,2013-02-20 12:00:00,
2013-02-20 06:05:00,9.8,5.1,30.37,NNW,336,9.0,10.0,81,0.00,,,0.00,Wunderground v.1.15,2013-02-20 12:05:00,
2013-02-20 06:10:00,9.8,5.1,30.37,NW,320,9.0,9.0,81,0.00,,,0.00,Wunderground v.1.15,2013-02-20 12:10:00,
2013-02-20 06:15:00,9.8,5.1,30.37,NW,306,8.0,9.0,81,0.00,,,0.00,Wunderground v.1.15,2013-02-20 12:15:00,
2013-02-20 06:20:00,9.8,5.4,30.38,NW,314,8.0,8.0,82,0.00,,,0.00,Wunderground v.1.15,2013-02-20 12:20:00,
2013-02-20 06:25:00,9.8,5.1,30.38,NW,306,8.0,11.0,81,0.00,,,0.00,Wunderground v.1.15,2013-02-20 12:25:00,
2013-02-20 06:30:00,9.8,5.1,30.38,NW,313,9.0,9.0,81,0.00,,,0.00,Wunderground v.1.15,2013-02-20 12:30:00,
2013-02-20 06:40:00,9.8,5.1,30.38,NW,309,9.0,9.0,81,0.00,,,0.00,Wunderground v.1.15,2013-02-20 12:40:00,
2013-02-20 06:45:00,9.8,5.1,30.39,NW,311,9.0,10.0,81,0.00,,,0.00,Wunderground v.1.15,2013-02-20 12:45:00,
2013-02-20 06:50:00,9.8,5.1,30.39,NW,309,9.0,9.0,81,0.00,,,0.00,Wunderground v.1.15,2013-02-20 12:50:00,
2013-02-20 06:55:00,9.8,5.1,30.39,NW,318,8.0,14.0,81,0.00,,,0.00,Wunderground v.1.15,2013-02-20 12:55:00,
2013-02-20 07:00:00,9.9,5.5,30.39,NW,314,8.0,9.0,82,0.00,,,0.00,Wunderground v.1.15,2013-02-20 13:00:00,
2013-02-20 07:05:00,9.9,5.2,30.39,NW,310,8.0,10.0,81,0.00,,,0.00,Wunderground v.1.15,2013-02-20 13:05:00,
2013-02-20 07:10:00,10.0,5.3,30.39,NW,310,8.0,8.0,81,0.00,,,0.00,Wunderground v.1.15,2013-02-20 13:10:00,
2013-02-20 07:15:00,10.1,5.4,30.39,NW,306,8.0,10.0,81,0.00,,,0.00,Wunderground v.1.15,2013-02-20 13:15:00,
2013-02-20 07:20:00,10.1,5.4,30.40,NW,323,9.0,9.0,81,0.00,,,0.00,Wunderground v.1.15,2013-02-20 13:20:00,
2013-02-20 07:25:00,10.3,5.6,30.40,NW,309,9.0,10.0,81,0.00,,,0.00,Wunderground v.1.15,2013-02-20 13:25:00,
2013-02-20 07:30:00,10.5,5.8,30.40,NW,305,9.0,9.0,81,0.00,,,0.00,Wunderground v.1.15,2013-02-20 13:30:00,
2013-02-20 07:40:00,10.8,6.1,30.40,NW,317,8.0,9.0,81,0.00,,,0.00,Wunderground v.1.15,2013-02-20 13:40:00,
2013-02-20 13:00:00,23.5,16.1,30.44,WNW,294,12.0,12.0,73,0.00,,,0.00,Wunderground v.1.15,2013-02-20 19:00:00,
2013-02-20 13:05:00,23.8,16.7,30.43,WNW,290,12.0,12.0,74,0.00,,,0.00,Wunderground v.1.15,2013-02-20 19:05:00,
2013-02-20 13:10:00,23.9,16.5,30.44,WNW,298,11.0,13.0,73,0.00,,,0.00,Wunderground v.1.15,2013-02-20 19:10:00,
2013-02-20 13:15:00,24.0,16.3,30.44,WNW,294,12.0,13.0,72,0.00,,,0.00,Wunderground v.1.15,2013-02-20 19:15:00,
2013-02-20 13:20:00,24.3,15.9,30.44,WNW,292,12.0,12.0,70,0.00,,,0.00,Wunderground v.1.15,2013-02-20 19:20:00,
2013-02-20 13:25:00,24.4,16.7,30.44,WNW,285,12.0,14.0,72,0.00,,,0.00,Wunderground v.1.15,2013-02-20 19:25:00,
2013-02-20 13:30:00,24.6,17.5,30.43,NW,306,11.0,13.0,74,0.00,,,0.00,Wunderground v.1.15,2013-02-20 19:30:00,
2013-02-20 13:35:00,24.8,17.4,30.42,NW,309,11.0,13.0,73,0.00,,,0.00,Wunderground v.1.15,2013-02-20 19:35:00,
2013-02-20 13:40:00,24.8,17.7,30.42,WNW,299,11.0,11.0,74,0.00,,,0.00,Wunderground v.1.15,2013-02-20 19:40:00,
2013-02-20 13:45:00,25.0,18.2,30.42,NW,308,11.0,16.0,75,0.00,,,0.00,Wunderground v.1.15,2013-02-20 19:45:00,
2013-02-20 13:50:00,25.0,17.2,30.42,WNW,290,12.0,12.0,72,0.00,,,0.00,Wunderground v.1.15,2013-02-20 19:50:00,
2013-02-20 13:55:00,25.0,17.6,30.41,West,279,12.0,16.0,73,0.00,,,0.00,Wunderground v.1.15,2013-02-20 19:55:00,
2013-02-20 14:00:00,25.0,17.2,30.42,NW,304,11.0,11.0,72,0.00,,,0.00,Wunderground v.1.15,2013-02-20 20:00:00,
2013-02-20 14:05:00,25.0,17.6,30.41,WNW,286,11.0,11.0,73,0.00,,,0.00,Wunderground v.1.15,2013-02-20 20:05:00,
2013-02-20 14:10:00,24.9,17.8,30.41,NW,309,12.0,12.0,74,0.00,,,0.00,Wunderground v.1.15,2013-02-20 20:10:00,
2013-02-20 14:15:00,25.3,18.5,30.41,NW,317,11.0,14.0,75,0.00,,,0.00,Wunderground v.1.15,2013-02-20 20:15:00,
2013-02-20 14:25:00,25.4,18.3,30.41,NNW,331,12.0,12.0,74,0.00,,,0.00,Wunderground v.1.15,2013-02-20 20:25:00,
2013-02-20 14:30:00,25.7,18.6,30.40,WNW,296,11.0,14.0,74,0.00,,,0.00,Wunderground v.1.15,2013-02-20 20:30:00,
2013-02-20 14:35:00,25.4,18.3,30.40,NW,308,11.0,14.0,74,0.00,,,0.00,Wunderground v.1.15,2013-02-20 20:35:00,
2013-02-20 14:40:00,25.6,18.5,30.40,WNW,301,12.0,12.0,74,0.00,,,0.00,Wunderground v.1.15,2013-02-20 20:40:00,
2013-02-20 14:45:00,25.7,18.6,30.40,NW,313,11.0,12.0,74,0.00,,,0.00,Wunderground v.1.15,2013-02-20 20:45:00,
2013-02-20 14:50:00,25.7,18.6,30.40,NW,308,10.0,10.0,74,0.00,,,0.00,Wunderground v.1.15,2013-02-20 20:50:00,
2013-02-20 14:55:00,25.8,18.7,30.40,NNW,339,10.0,18.0,74,0.00,,,0.00,Wunderground v.1.15,2013-02-20 20:55:00,
2013-02-20 15:00:00,25.8,18.3,30.39,NW,326,10.0,10.0,73,0.00,,,0.00,Wunderground v.1.15,2013-02-20 21:00:00,
2013-02-20 15:05:00,25.7,18.2,30.39,NW,304,10.0,12.0,73,0.00,,,0.00,Wunderground v.1.15,2013-02-20 21:05:00,
2013-02-20 15:10:00,25.5,18.4,30.39,WNW,300,11.0,11.0,74,0.00,,,0.00,Wunderground v.1.15,2013-02-20 21:10:00,
2013-02-20 15:15:00,25.6,18.8,30.39,NW,314,11.0,11.0,75,0.00,,,0.00,Wunderground v.1.15,2013-02-20 21:15:00,
2013-02-20 15:20:00,25.8,18.7,30.39,NW,309,10.0,10.0,74,0.00,,,0.00,Wunderground v.1.15,2013-02-20 21:20:00,
2013-02-20 15:25:00,25.6,18.5,30.39,NW,306,10.0,10.0,74,0.00,,,0.00,Wunderground v.1.15,2013-02-20 21:25:00,
2013-02-20 15:30:00,25.8,18.7,30.39,NW,325,10.0,10.0,74,0.00,,,0.00,Wunderground v.1.15,2013-02-20 21:30:00,
2013-02-20 15:35:00,26.2,19.4,30.39,NNW,342,9.0,10.0,75,0.00,,,0.00,Wunderground v.1.15,2013-02-20 21:35:00,
2013-02-20 15:40:00,26.2,18.7,30.39,NW,323,8.0,8.0,73,0.00,,,0.00,Wunderground v.1.15,2013-02-20 21:40:00,
2013-02-20 15:45:00,26.1,18.6,30.39,NW,316,7.0,9.0,73,0.00,,,0.00,Wunderground v.1.15,2013-02-20 21:45:00,
2013-02-20 15:50:00,26.1,18.9,30.39,NNW,329,7.0,9.0,74,0.00,,,0.00,Wunderground v.1.15,2013-02-20 21:50:00,
2013-02-20 15:55:00,26.1,18.9,30.39,North,355,8.0,17.0,74,0.00,,,0.00,Wunderground v.1.15,2013-02-20 21:55:00,
2013-02-20 16:00:00,26.1,19.3,30.39,NNW,343,7.0,7.0,75,0.00,,,0.00,Wunderground v.1.15,2013-02-20 22:00:00,
2013-02-20 16:05:00,26.1,18.6,30.39,North,5,6.0,8.0,73,0.00,,,0.00,Wunderground v.1.15,2013-02-20 22:05:00,
2013-02-20 16:10:00,26.1,18.6,30.39,NW,323,6.0,6.0,73,0.00,,,0.00,Wunderground v.1.15,2013-02-20 22:10:00,
2013-02-20 16:15:00,26.1,18.9,30.39,North,5,6.0,10.0,74,0.00,,,0.00,Wunderground v.1.15,2013-02-20 22:15:00,
2013-02-20 16:20:00,26.1,18.9,30.39,NNW,339,6.0,6.0,74,0.00,,,0.00,Wunderground v.1.15,2013-02-20 22:20:00,
2013-02-20 16:25:00,26.0,19.2,30.39,NNW,333,6.0,6.0,75,0.00,,,0.00,Wunderground v.1.15,2013-02-20 22:25:00,
2013-02-20 16:30:00,25.9,18.4,30.39,NW,323,5.0,8.0,73,0.00,,,0.00,Wunderground v.1.15,2013-02-20 22:30:00,
2013-02-20 16:35:00,25.8,18.7,30.39,NW,321,6.0,9.0,74,0.00,,,0.00,Wunderground v.1.15,2013-02-20 22:35:00,
2013-02-20 16:40:00,25.7,19.2,30.40,NNW,340,7.0,7.0,76,0.00,,,0.00,Wunderground v.1.15,2013-02-20 22:40:00,
2013-02-20 16:45:00,25.6,18.8,30.40,NNW,341,6.0,7.0,75,0.00,,,0.00,Wunderground v.1.15,2013-02-20 22:45:00,
2013-02-20 16:50:00,25.5,19.0,30.40,NNW,339,5.0,5.0,76,0.00,,,0.00,Wunderground v.1.15,2013-02-20 22:50:00,
2013-02-20 16:55:00,25.4,18.9,30.40,NW,326,5.0,13.0,76,0.00,,,0.00,Wunderground v.1.15,2013-02-20 22:55:00,
2013-02-20 17:00:00,25.3,18.8,30.40,NNW,332,5.0,5.0,76,0.00,,,0.00,Wunderground v.1.15,2013-02-20 23:00:00,
2013-02-20 17:05:00,25.2,18.7,30.40,NNW,335,5.0,5.0,76,0.00,,,0.00,Wunderground v.1.15,2013-02-20 23:05:00,
2013-02-20 17:10:00,25.2,19.0,30.41,NNW,338,5.0,5.0,77,0.00,,,0.00,Wunderground v.1.15,2013-02-20 23:10:00,
2013-02-20 17:15:00,25.1,19.2,30.41,NNW,344,5.0,5.0,78,0.00,,,0.00,Wunderground v.1.15,2013-02-20 23:15:00,
2013-02-20 17:20:00,25.0,19.1,30.41,NNW,344,4.0,4.0,78,0.00,,,0.00,Wunderground v.1.15,2013-02-20 23:20:00,
2013-02-20 17:25:00,24.9,19.3,30.41,NNW,346,4.0,5.0,79,0.00,,,0.00,Wunderground v.1.15,2013-02-20 23:25:00,
2013-02-20 17:30:00,24.8,19.2,30.41,NNW,345,5.0,5.0,79,0.00,,,0.00,Wunderground v.1.15,2013-02-20 23:30:00,
2013-02-20 17:35:00,24.7,19.1,30.41,NNW,345,5.0,5.0,79,0.00,,,0.00,Wunderground v.1.15,2013-02-20 23:35:00,
2013-02-20 17:40:00,24.5,18.9,30.40,North,355,5.0,5.0,79,0.00,,,0.00,Wunderground v.1.15,2013-02-20 23:40:00,
2013-02-20 17:45:00,24.4,19.1,30.41,NNW,346,5.0,5.0,80,0.00,,,0.00,Wunderground v.1.15,2013-02-20 23:45:00,
2013-02-20 17:50:00,24.3,18.7,30.41,North,349,5.0,6.0,79,0.00,,,0.00,Wunderground v.1.15,2013-02-20 23:50:00,
2013-02-20 17:55:00,24.1,18.5,30.41,North,350,6.0,9.0,79,0.00,,,0.00,Wunderground v.1.15,2013-02-20 23:55:00,
2013-02-20 18:00:00,24.0,18.4,30.42,North,355,7.0,7.0,79,0.00,,,0.00,Wunderground v.1.15,2013-02-21 00:00:00,
2013-02-20 18:05:00,24.0,18.7,30.42,NNW,348,6.0,7.0,80,0.00,,,0.00,Wunderground v.1.15,2013-02-21 00:05:00,
2013-02-20 18:10:00,23.9,18.6,30.42,NNW,342,5.0,5.0,80,0.00,,,0.00,Wunderground v.1.15,2013-02-21 00:10:00,
2013-02-20 18:15:00,23.9,18.9,30.42,North,351,5.0,5.0,81,0.00,,,0.00,Wunderground v.1.15,2013-02-21 00:15:00,
2013-02-20 18:20:00,23.9,18.9,30.42,NNW,343,5.0,5.0,81,0.00,,,0.00,Wunderground v.1.15,2013-02-21 00:20:00,
2013-02-20 18:25:00,23.8,18.8,30.42,NNW,333,4.0,5.0,81,0.00,,,0.00,Wunderground v.1.15,2013-02-21 00:25:00,
2013-02-20 18:30:00,23.7,18.7,30.42,North,5,4.0,5.0,81,0.00,,,0.00,Wunderground v.1.15,2013-02-21 00:30:00,
2013-02-20 18:35:00,23.6,18.6,30.42,North,360,5.0,5.0,81,0.00,,,0.00,Wunderground v.1.15,2013-02-21 00:35:00,
2013-02-20 18:40:00,23.5,18.5,30.41,North,5,6.0,6.0,81,0.00,,,0.00,Wunderground v.1.15,2013-02-21 00:40:00,
2013-02-20 18:45:00,23.5,18.5,30.42,NNW,347,6.0,6.0,81,0.00,,,0.00,Wunderground v.1.15,2013-02-21 00:45:00,
2013-02-20 18:50:00,23.4,19.0,30.42,NNW,347,4.0,4.0,83,0.00,,,0.00,Wunderground v.1.15,2013-02-21 00:50:00,
2013-02-20 18:55:00,23.3,18.9,30.42,NNW,346,3.0,10.0,83,0.00,,,0.00,Wunderground v.1.15,2013-02-21 00:55:00,
2013-02-20 19:00:00,23.2,18.8,30.42,NNW,343,3.0,4.0,83,0.00,,,0.00,Wunderground v.1.15,2013-02-21 01:00:00,
2013-02-20 19:10:00,23.0,18.9,30.42,NNW,344,3.0,3.0,84,0.00,,,0.00,Wunderground v.1.15,2013-02-21 01:10:00,
2013-02-20 19:15:00,22.9,18.5,30.42,NNW,331,3.0,3.0,83,0.00,,,0.00,Wunderground v.1.15,2013-02-21 01:15:00,
2013-02-20 19:20:00,22.8,18.7,30.42,NNW,331,3.0,4.0,84,0.00,,,0.00,Wunderground v.1.15,2013-02-21 01:20:00,
2013-02-20 19:25:00,22.6,18.5,30.42,NNW,343,3.0,4.0,84,0.00,,,0.00,Wunderground v.1.15,2013-02-21 01:25:00,
2013-02-20 19:30:00,22.5,18.7,30.42,NNW,348,3.0,3.0,85,0.00,,,0.00,Wunderground v.1.15,2013-02-21 01:30:00,
2013-02-20 19:35:00,22.5,18.7,30.42,North,360,3.0,3.0,85,0.00,,,0.00,Wunderground v.1.15,2013-02-21 01:35:00,
2013-02-20 19:40:00,22.4,18.6,30.41,NNE,13,3.0,7.0,85,0.00,,,0.00,Wunderground v.1.15,2013-02-21 01:40:00,
2013-02-20 19:45:00,22.3,18.5,30.41,NNE,13,4.0,7.0,85,0.00,,,0.00,Wunderground v.1.15,2013-02-21 01:45:00,
2013-02-20 19:50:00,22.3,18.2,30.41,North,355,4.0,5.0,84,0.00,,,0.00,Wunderground v.1.15,2013-02-21 01:50:00,
2013-02-20 19:55:00,22.2,18.1,30.41,North,355,4.0,8.0,84,0.00,,,0.00,Wunderground v.1.15,2013-02-21 01:55:00,
2013-02-20 20:00:00,22.1,18.0,30.41,North,360,4.0,7.0,84,0.00,,,0.00,Wunderground v.1.15,2013-02-21 02:00:00,
2013-02-20 20:10:00,22.0,17.9,30.41,North,355,2.0,2.0,84,0.00,,,0.00,Wunderground v.1.15,2013-02-21 02:10:00,
2013-02-20 20:15:00,21.9,18.1,30.41,North,355,2.0,3.0,85,0.00,,,0.00,Wunderground v.1.15,2013-02-21 02:15:00,
2013-02-20 20:20:00,21.8,18.0,30.41,North,355,2.0,2.0,85,0.00,,,0.00,Wunderground v.1.15,2013-02-21 02:20:00,
2013-02-20 20:25:00,21.7,17.9,30.41,NNW,342,1.0,2.0,85,0.00,,,0.00,Wunderground v.1.15,2013-02-21 02:25:00,
2013-02-20 20:30:00,21.6,17.8,30.41,NNW,348,1.0,1.0,85,0.00,,,0.00,Wunderground v.1.15,2013-02-21 02:30:00,
2013-02-20 20:35:00,21.5,18.0,30.42,NNW,348,1.0,1.0,86,0.00,,,0.00,Wunderground v.1.15,2013-02-21 02:35:00,
2013-02-20 20:40:00,21.3,17.8,30.42,NNW,348,0.0,0.0,86,0.00,,,0.00,Wunderground v.1.15,2013-02-21 02:40:00,
2013-02-20 20:45:00,21.2,17.7,30.42,NNW,348,0.0,0.0,86,0.00,,,0.00,Wunderground v.1.15,2013-02-21 02:45:00,
2013-02-20 20:50:00,21.1,17.6,30.42,NNW,348,0.0,0.0,86,0.00,,,0.00,Wunderground v.1.15,2013-02-21 02:50:00,
2013-02-20 20:55:00,20.9,17.6,30.42,NNW,348,0.0,6.0,87,0.00,,,0.00,Wunderground v.1.15,2013-02-21 02:55:00,
2013-02-20 21:00:00,20.8,17.5,30.42,NNW,348,0.0,0.0,87,0.00,,,0.00,Wunderground v.1.15,2013-02-21 03:00:00,
2013-02-20 21:10:00,20.6,17.6,30.42,NNW,348,0.0,0.0,88,0.00,,,0.00,Wunderground v.1.15,2013-02-21 03:10:00,
2013-02-20 21:15:00,20.5,17.5,30.42,North,360,0.0,0.0,88,0.00,,,0.00,Wunderground v.1.15,2013-02-21 03:15:00,
2013-02-20 21:20:00,20.6,17.3,30.42,North,9,0.0,1.0,87,0.00,,,0.00,Wunderground v.1.15,2013-02-21 03:20:00,
2013-02-20 21:25:00,20.6,17.3,30.42,North,9,0.0,1.0,87,0.00,,,0.00,Wunderground v.1.15,2013-02-21 03:25:00,
2013-02-20 21:30:00,20.7,17.4,30.42,North,5,0.0,1.0,87,0.00,,,0.00,Wunderground v.1.15,2013-02-21 03:30:00,
2013-02-20 21:35:00,20.8,17.3,30.42,NNE,14,1.0,2.0,86,0.00,,,0.00,Wunderground v.1.15,2013-02-21 03:35:00,
2013-02-20 21:40:00,20.8,17.0,30.42,NNE,24,1.0,1.0,85,0.00,,,0.00,Wunderground v.1.15,2013-02-21 03:40:00,
2013-02-20 21:45:00,20.9,17.1,30.42,NNE,30,1.0,1.0,85,0.00,,,0.00,Wunderground v.1.15,2013-02-21 03:45:00,
2013-02-20 21:50:00,20.9,17.1,30.42,NNE,30,1.0,1.0,85,0.00,,,0.00,Wunderground v.1.15,2013-02-21 03:50:00,
2013-02-20 21:55:00,20.8,17.0,30.42,NNE,30,0.0,1.0,85,0.00,,,0.00,Wunderground v.1.15,2013-02-21 03:55:00,
2013-02-20 22:05:00,20.5,17.0,30.42,NNE,30,0.0,0.0,86,0.00,,,0.00,Wunderground v.1.15,2013-02-21 04:05:00,
2013-02-20 22:10:00,20.5,17.0,30.43,NNE,30,0.0,0.0,86,0.00,,,0.00,Wunderground v.1.15,2013-02-21 04:10:00,
2013-02-20 22:15:00,20.3,16.8,30.43,NNE,30,0.0,0.0,86,0.00,,,0.00,Wunderground v.1.15,2013-02-21 04:15:00,
2013-02-20 22:20:00,20.2,17.0,30.43,NNE,30,0.0,0.0,87,0.00,,,0.00,Wunderground v.1.15,2013-02-21 04:20:00,